Cancún International Airport
MMUN : now visible

Airfield :











YOU CAN JOIN US ON...

 
LOGIN :

Register | Disclaimer

   EN    FR    IT 

 









Legend :    VFR   Marginal VFR   IFR   Intensive IFR   Very Intensive IFR
Visi :
Ceiling :
>= 8 km
>= 3000ft
5 to 8 km
1000 to 3000 ft
1500m to 5 km
500 to 1000 ft
800 to 1500m
200 to 500 ft
< 800m
< 200 ft
Symbols :   Thunderstorms  Fog  Heavy snow  Heavy precipitations  Wind > 20 kt






- Airport Elevation : 20 ft
- IATA code : CUN


MMUN - Cancún International

CURRENT METAR :
  • 061940Z 05004KT 7SM SCT015 OVC070 24/22 A3005 RMK 8/77/ LWR SC

EXPIRED METARs :
  • 061847Z 00000KT 5SM SCT012 BKN015 OVC070 23/21 A3009 RMK 8/77/ CU
  • 061746Z 36004KT 5SM SCT010 BKN015 OVC080 22/21 A3011 RMK SLP197 57006 955 8/77/
  • 061724Z 05003KT 5SM BKN015 OVC080 22/21 A3012 RMK 8/77/ RAB10

TAF AMD TAF MMUN
Valid from the 06 at 20:00 until the 07 at 18:00 UTC


061955Z 0620/0718 06010KT P6SM SCT015 OVC070 TX25/0621Z TN21/0710Z
FM070100 00000KT P6SM SCT015
TEMPO 0712/0715 3SM BR
FM071500 09010KT P6SM BKN015
MMFR FIR / North America



MET'MAP, your aeronautical weather chart ! - Copyright ORBIFLY December 2007 - Disclaimer

ORBIFLY MET'MAP TEAM :

Programming & Development : Alexandra Zaïnal
Original concept : Baudouin d'Aumeries
Technical & hardware support : Manuel Goepfert
Assistance : Marc-Olivier Méhu




SOURCES & CREDITS :

   NOAA       Earth
Advisory